sensor_id;sensor_type;location;lat;lon;timestamp;P1;durP1;ratioP1;P2;durP2;ratioP2
78856;SDS011;68207;50.078;19.936;2024-02-26T00:01:58;21.20;;;12.40;;
78856;SDS011;68207;50.078;19.936;2024-02-26T00:04:24;22.00;;;13.20;;
78856;SDS011;68207;50.078;19.936;2024-02-26T00:06:49;20.80;;;12.70;;
78856;SDS011;68207;50.078;19.936;2024-02-26T00:09:16;24.00;;;13.90;;
78856;SDS011;68207;50.078;19.936;2024-02-26T00:11:41;21.20;;;12.90;;
78856;SDS011;68207;50.078;19.936;2024-02-26T00:14:06;24.80;;;13.20;;
78856;SDS011;68207;50.078;19.936;2024-02-26T00:16:31;24.60;;;13.90;;
78856;SDS011;68207;50.078;19.936;2024-02-26T00:18:56;22.10;;;13.70;;
78856;SDS011;68207;50.078;19.936;2024-02-26T00:21:22;24.60;;;13.50;;
78856;SDS011;68207;50.078;19.936;2024-02-26T00:23:48;21.90;;;13.80;;
78856;SDS011;68207;50.078;19.936;2024-02-26T00:26:14;24.60;;;13.70;;
78856;SDS011;68207;50.078;19.936;2024-02-26T00:28:40;23.90;;;13.40;;
78856;SDS011;68207;50.078;19.936;2024-02-26T00:31:05;25.00;;;14.30;;
78856;SDS011;68207;50.078;19.936;2024-02-26T00:33:30;23.80;;;13.20;;
78856;SDS011;68207;50.078;19.936;2024-02-26T00:35:55;24.80;;;14.50;;
78856;SDS011;68207;50.078;19.936;2024-02-26T00:38:20;24.90;;;14.30;;
78856;SDS011;68207;50.078;19.936;2024-02-26T00:40:46;23.50;;;15.00;;
78856;SDS011;68207;50.078;19.936;2024-02-26T00:43:11;23.20;;;13.70;;
78856;SDS011;68207;50.078;19.936;2024-02-26T00:45:36;24.00;;;13.20;;
78856;SDS011;68207;50.078;19.936;2024-02-26T00:48:01;25.50;;;14.20;;
78856;SDS011;68207;50.078;19.936;2024-02-26T00:50:30;21.60;;;12.60;;
78856;SDS011;68207;50.078;19.936;2024-02-26T00:52:55;23.80;;;13.60;;
78856;SDS011;68207;50.078;19.936;2024-02-26T00:55:20;23.00;;;12.70;;
78856;SDS011;68207;50.078;19.936;2024-02-26T00:57:45;24.00;;;13.20;;
78856;SDS011;68207;50.078;19.936;2024-02-26T01:00:11;23.20;;;12.50;;
78856;SDS011;68207;50.078;19.936;2024-02-26T01:02:36;21.00;;;12.20;;
78856;SDS011;68207;50.078;19.936;2024-02-26T01:05:03;20.30;;;13.10;;
78856;SDS011;68207;50.078;19.936;2024-02-26T01:07:28;25.60;;;13.80;;
78856;SDS011;68207;50.078;19.936;2024-02-26T01:09:53;21.60;;;13.30;;
78856;SDS011;68207;50.078;19.936;2024-02-26T01:12:18;26.20;;;13.10;;
78856;SDS011;68207;50.078;19.936;2024-02-26T01:14:43;21.80;;;13.50;;
78856;SDS011;68207;50.078;19.936;2024-02-26T01:17:09;23.40;;;13.50;;
78856;SDS011;68207;50.078;19.936;2024-02-26T01:19:34;22.50;;;12.60;;
78856;SDS011;68207;50.078;19.936;2024-02-26T01:21:59;21.40;;;12.90;;
78856;SDS011;68207;50.078;19.936;2024-02-26T01:24:24;22.30;;;12.20;;
78856;SDS011;68207;50.078;19.936;2024-02-26T01:26:49;22.50;;;13.20;;
78856;SDS011;68207;50.078;19.936;2024-02-26T01:29:14;20.90;;;12.90;;
78856;SDS011;68207;50.078;19.936;2024-02-26T01:31:40;26.00;;;13.40;;
78856;SDS011;68207;50.078;19.936;2024-02-26T01:34:05;22.10;;;13.20;;
78856;SDS011;68207;50.078;19.936;2024-02-26T01:36:30;21.20;;;12.00;;
78856;SDS011;68207;50.078;19.936;2024-02-26T01:38:55;26.70;;;13.50;;
78856;SDS011;68207;50.078;19.936;2024-02-26T01:41:20;23.00;;;12.50;;
78856;SDS011;68207;50.078;19.936;2024-02-26T01:43:45;20.30;;;12.30;;
78856;SDS011;68207;50.078;19.936;2024-02-26T01:46:11;22.90;;;13.20;;
78856;SDS011;68207;50.078;19.936;2024-02-26T01:48:38;22.30;;;12.30;;
78856;SDS011;68207;50.078;19.936;2024-02-26T01:51:04;23.60;;;13.10;;
78856;SDS011;68207;50.078;19.936;2024-02-26T01:53:29;21.20;;;12.80;;
78856;SDS011;68207;50.078;19.936;2024-02-26T01:55:55;23.30;;;13.70;;
78856;SDS011;68207;50.078;19.936;2024-02-26T01:58:20;24.90;;;13.80;;
78856;SDS011;68207;50.078;19.936;2024-02-26T02:00:45;23.40;;;12.40;;
78856;SDS011;68207;50.078;19.936;2024-02-26T02:03:10;23.40;;;11.90;;
78856;SDS011;68207;50.078;19.936;2024-02-26T02:05:35;23.50;;;13.20;;
78856;SDS011;68207;50.078;19.936;2024-02-26T02:08:06;21.80;;;12.60;;
78856;SDS011;68207;50.078;19.936;2024-02-26T02:10:31;20.30;;;12.80;;
78856;SDS011;68207;50.078;19.936;2024-02-26T02:12:57;22.30;;;12.50;;
78856;SDS011;68207;50.078;19.936;2024-02-26T02:15:22;25.90;;;13.80;;
78856;SDS011;68207;50.078;19.936;2024-02-26T02:17:47;22.20;;;12.40;;
78856;SDS011;68207;50.078;19.936;2024-02-26T02:20:16;21.20;;;12.50;;
78856;SDS011;68207;50.078;19.936;2024-02-26T02:22:42;21.20;;;12.60;;
78856;SDS011;68207;50.078;19.936;2024-02-26T02:25:07;22.80;;;12.70;;
78856;SDS011;68207;50.078;19.936;2024-02-26T02:27:32;24.10;;;13.30;;
78856;SDS011;68207;50.078;19.936;2024-02-26T02:29:57;22.70;;;12.30;;
78856;SDS011;68207;50.078;19.936;2024-02-26T02:32:23;23.40;;;13.40;;
78856;SDS011;68207;50.078;19.936;2024-02-26T02:34:49;20.50;;;12.20;;
78856;SDS011;68207;50.078;19.936;2024-02-26T02:37:14;21.90;;;12.90;;
78856;SDS011;68207;50.078;19.936;2024-02-26T02:39:39;25.70;;;13.90;;
78856;SDS011;68207;50.078;19.936;2024-02-26T02:42:04;20.80;;;12.60;;
78856;SDS011;68207;50.078;19.936;2024-02-26T02:44:30;22.40;;;12.80;;
78856;SDS011;68207;50.078;19.936;2024-02-26T02:46:55;21.30;;;13.50;;
78856;SDS011;68207;50.078;19.936;2024-02-26T02:49:20;21.70;;;12.60;;
78856;SDS011;68207;50.078;19.936;2024-02-26T02:51:45;24.90;;;13.70;;
78856;SDS011;68207;50.078;19.936;2024-02-26T02:54:10;22.20;;;12.70;;
78856;SDS011;68207;50.078;19.936;2024-02-26T02:56:35;20.20;;;12.00;;
78856;SDS011;68207;50.078;19.936;2024-02-26T02:59:01;20.60;;;11.90;;
78856;SDS011;68207;50.078;19.936;2024-02-26T03:01:26;24.30;;;14.00;;
78856;SDS011;68207;50.078;19.936;2024-02-26T03:03:51;21.10;;;13.00;;
78856;SDS011;68207;50.078;19.936;2024-02-26T03:06:17;20.30;;;11.70;;
78856;SDS011;68207;50.078;19.936;2024-02-26T03:08:42;23.90;;;13.40;;
78856;SDS011;68207;50.078;19.936;2024-02-26T03:11:07;21.10;;;12.60;;
78856;SDS011;68207;50.078;19.936;2024-02-26T03:13:32;22.90;;;13.40;;
78856;SDS011;68207;50.078;19.936;2024-02-26T03:15:57;24.50;;;13.10;;
78856;SDS011;68207;50.078;19.936;2024-02-26T03:18:23;21.50;;;12.80;;
78856;SDS011;68207;50.078;19.936;2024-02-26T03:20:49;23.40;;;13.00;;
78856;SDS011;68207;50.078;19.936;2024-02-26T03:23:14;23.60;;;12.80;;
78856;SDS011;68207;50.078;19.936;2024-02-26T03:28:06;22.00;;;13.30;;
78856;SDS011;68207;50.078;19.936;2024-02-26T03:30:31;21.30;;;12.30;;
78856;SDS011;68207;50.078;19.936;2024-02-26T03:32:56;23.80;;;13.50;;
78856;SDS011;68207;50.078;19.936;2024-02-26T03:35:21;23.00;;;12.40;;
78856;SDS011;68207;50.078;19.936;2024-02-26T03:37:46;20.30;;;12.00;;
78856;SDS011;68207;50.078;19.936;2024-02-26T03:40:12;22.10;;;12.80;;
78856;SDS011;68207;50.078;19.936;2024-02-26T03:45:04;21.40;;;12.20;;
78856;SDS011;68207;50.078;19.936;2024-02-26T03:47:30;21.20;;;13.00;;
78856;SDS011;68207;50.078;19.936;2024-02-26T03:49:55;22.30;;;11.50;;
78856;SDS011;68207;50.078;19.936;2024-02-26T03:52:20;22.30;;;12.30;;
78856;SDS011;68207;50.078;19.936;2024-02-26T03:54:45;21.20;;;12.20;;
78856;SDS011;68207;50.078;19.936;2024-02-26T03:57:10;24.20;;;12.40;;
78856;SDS011;68207;50.078;19.936;2024-02-26T03:59:35;24.90;;;13.10;;
78856;SDS011;68207;50.078;19.936;2024-02-26T04:02:01;21.30;;;13.00;;
78856;SDS011;68207;50.078;19.936;2024-02-26T04:04:27;21.90;;;11.60;;
78856;SDS011;68207;50.078;19.936;2024-02-26T04:06:52;25.10;;;13.70;;
78856;SDS011;68207;50.078;19.936;2024-02-26T04:09:17;20.80;;;12.60;;
78856;SDS011;68207;50.078;19.936;2024-02-26T04:11:42;21.60;;;12.60;;
78856;SDS011;68207;50.078;19.936;2024-02-26T04:14:10;24.80;;;13.00;;
78856;SDS011;68207;50.078;19.936;2024-02-26T04:16:37;22.90;;;14.00;;
78856;SDS011;68207;50.078;19.936;2024-02-26T04:19:02;23.20;;;13.10;;
78856;SDS011;68207;50.078;19.936;2024-02-26T04:21:27;24.40;;;13.30;;
78856;SDS011;68207;50.078;19.936;2024-02-26T04:23:52;23.40;;;13.40;;
78856;SDS011;68207;50.078;19.936;2024-02-26T04:26:20;21.40;;;13.50;;
78856;SDS011;68207;50.078;19.936;2024-02-26T04:28:46;23.50;;;13.40;;
78856;SDS011;68207;50.078;19.936;2024-02-26T04:31:11;20.80;;;13.30;;
78856;SDS011;68207;50.078;19.936;2024-02-26T04:33:36;21.80;;;13.00;;
78856;SDS011;68207;50.078;19.936;2024-02-26T04:36:01;22.90;;;12.80;;
78856;SDS011;68207;50.078;19.936;2024-02-26T04:38:28;22.30;;;12.70;;
78856;SDS011;68207;50.078;19.936;2024-02-26T04:40:53;21.40;;;12.80;;
78856;SDS011;68207;50.078;19.936;2024-02-26T04:43:18;23.40;;;12.60;;
78856;SDS011;68207;50.078;19.936;2024-02-26T04:45:44;21.80;;;12.20;;
78856;SDS011;68207;50.078;19.936;2024-02-26T04:48:09;24.10;;;13.70;;
78856;SDS011;68207;50.078;19.936;2024-02-26T04:50:34;19.90;;;12.80;;
78856;SDS011;68207;50.078;19.936;2024-02-26T04:52:59;22.20;;;12.80;;
78856;SDS011;68207;50.078;19.936;2024-02-26T04:55:24;26.30;;;13.40;;
78856;SDS011;68207;50.078;19.936;2024-02-26T04:57:50;21.90;;;13.40;;
78856;SDS011;68207;50.078;19.936;2024-02-26T05:00:15;24.60;;;13.80;;
78856;SDS011;68207;50.078;19.936;2024-02-26T05:02:40;24.90;;;14.00;;
78856;SDS011;68207;50.078;19.936;2024-02-26T05:05:06;22.70;;;13.20;;
78856;SDS011;68207;50.078;19.936;2024-02-26T05:07:31;25.10;;;13.30;;
78856;SDS011;68207;50.078;19.936;2024-02-26T05:09:56;21.10;;;12.80;;
78856;SDS011;68207;50.078;19.936;2024-02-26T05:12:21;23.70;;;13.80;;
78856;SDS011;68207;50.078;19.936;2024-02-26T05:14:46;27.90;;;13.80;;
78856;SDS011;68207;50.078;19.936;2024-02-26T05:17:12;24.20;;;13.80;;
78856;SDS011;68207;50.078;19.936;2024-02-26T05:19:37;22.60;;;14.10;;
78856;SDS011;68207;50.078;19.936;2024-02-26T05:22:02;25.10;;;14.40;;
78856;SDS011;68207;50.078;19.936;2024-02-26T05:24:27;23.10;;;13.50;;
78856;SDS011;68207;50.078;19.936;2024-02-26T05:26:53;24.20;;;14.00;;
78856;SDS011;68207;50.078;19.936;2024-02-26T05:29:18;22.20;;;13.70;;
78856;SDS011;68207;50.078;19.936;2024-02-26T05:31:43;24.50;;;13.30;;
78856;SDS011;68207;50.078;19.936;2024-02-26T05:34:08;26.30;;;14.00;;
78856;SDS011;68207;50.078;19.936;2024-02-26T05:36:34;26.50;;;13.70;;
78856;SDS011;68207;50.078;19.936;2024-02-26T05:38:59;22.30;;;13.80;;
78856;SDS011;68207;50.078;19.936;2024-02-26T05:41:25;21.60;;;13.30;;
78856;SDS011;68207;50.078;19.936;2024-02-26T05:43:51;26.80;;;14.20;;
78856;SDS011;68207;50.078;19.936;2024-02-26T05:46:17;21.50;;;13.90;;
78856;SDS011;68207;50.078;19.936;2024-02-26T05:48:43;25.00;;;14.40;;
78856;SDS011;68207;50.078;19.936;2024-02-26T05:51:08;23.20;;;14.60;;
78856;SDS011;68207;50.078;19.936;2024-02-26T05:53:34;26.20;;;15.10;;
78856;SDS011;68207;50.078;19.936;2024-02-26T05:55:59;30.50;;;15.90;;
78856;SDS011;68207;50.078;19.936;2024-02-26T05:58:24;21.80;;;14.70;;
78856;SDS011;68207;50.078;19.936;2024-02-26T06:00:49;26.10;;;15.30;;
78856;SDS011;68207;50.078;19.936;2024-02-26T06:03:14;27.20;;;14.70;;
78856;SDS011;68207;50.078;19.936;2024-02-26T06:05:39;29.20;;;17.00;;
78856;SDS011;68207;50.078;19.936;2024-02-26T06:08:05;25.20;;;15.80;;
78856;SDS011;68207;50.078;19.936;2024-02-26T06:10:31;29.70;;;16.30;;
78856;SDS011;68207;50.078;19.936;2024-02-26T06:12:57;24.90;;;14.80;;
78856;SDS011;68207;50.078;19.936;2024-02-26T06:15:22;33.50;;;16.40;;
78856;SDS011;68207;50.078;19.936;2024-02-26T06:17:47;28.60;;;15.50;;
78856;SDS011;68207;50.078;19.936;2024-02-26T06:20:12;29.00;;;15.50;;
78856;SDS011;68207;50.078;19.936;2024-02-26T06:22:39;23.90;;;15.00;;
78856;SDS011;68207;50.078;19.936;2024-02-26T06:25:04;25.60;;;15.20;;
78856;SDS011;68207;50.078;19.936;2024-02-26T06:27:29;28.30;;;15.10;;
78856;SDS011;68207;50.078;19.936;2024-02-26T06:29:55;28.10;;;15.50;;
78856;SDS011;68207;50.078;19.936;2024-02-26T06:32:20;26.20;;;15.20;;
78856;SDS011;68207;50.078;19.936;2024-02-26T06:34:45;25.20;;;15.80;;
78856;SDS011;68207;50.078;19.936;2024-02-26T06:37:11;23.70;;;15.30;;
78856;SDS011;68207;50.078;19.936;2024-02-26T06:39:36;27.50;;;15.30;;
78856;SDS011;68207;50.078;19.936;2024-02-26T06:42:01;30.80;;;16.10;;
78856;SDS011;68207;50.078;19.936;2024-02-26T06:44:29;24.80;;;14.60;;
78856;SDS011;68207;50.078;19.936;2024-02-26T06:46:57;28.50;;;15.00;;
78856;SDS011;68207;50.078;19.936;2024-02-26T06:49:23;24.90;;;14.90;;
78856;SDS011;68207;50.078;19.936;2024-02-26T06:51:48;27.10;;;15.60;;
78856;SDS011;68207;50.078;19.936;2024-02-26T06:54:13;25.70;;;15.00;;
78856;SDS011;68207;50.078;19.936;2024-02-26T06:56:38;25.70;;;14.50;;
78856;SDS011;68207;50.078;19.936;2024-02-26T06:59:03;25.50;;;15.20;;
78856;SDS011;68207;50.078;19.936;2024-02-26T07:01:29;25.10;;;13.90;;
78856;SDS011;68207;50.078;19.936;2024-02-26T07:03:55;27.30;;;15.40;;
78856;SDS011;68207;50.078;19.936;2024-02-26T07:06:20;27.50;;;16.00;;
78856;SDS011;68207;50.078;19.936;2024-02-26T07:08:46;23.70;;;14.70;;
78856;SDS011;68207;50.078;19.936;2024-02-26T07:11:11;24.80;;;14.10;;
78856;SDS011;68207;50.078;19.936;2024-02-26T07:13:36;23.50;;;14.50;;
78856;SDS011;68207;50.078;19.936;2024-02-26T07:16:01;24.90;;;14.40;;
78856;SDS011;68207;50.078;19.936;2024-02-26T07:18:26;28.70;;;14.80;;
78856;SDS011;68207;50.078;19.936;2024-02-26T07:20:52;26.20;;;14.30;;
78856;SDS011;68207;50.078;19.936;2024-02-26T07:23:17;25.10;;;14.10;;
78856;SDS011;68207;50.078;19.936;2024-02-26T07:25:42;26.00;;;14.10;;
78856;SDS011;68207;50.078;19.936;2024-02-26T07:30:34;23.50;;;13.30;;
78856;SDS011;68207;50.078;19.936;2024-02-26T07:32:59;23.80;;;13.70;;
78856;SDS011;68207;50.078;19.936;2024-02-26T07:35:24;23.80;;;14.10;;
78856;SDS011;68207;50.078;19.936;2024-02-26T07:37:50;24.20;;;14.40;;
78856;SDS011;68207;50.078;19.936;2024-02-26T07:40:15;31.30;;;15.60;;
78856;SDS011;68207;50.078;19.936;2024-02-26T07:42:40;26.50;;;14.80;;
78856;SDS011;68207;50.078;19.936;2024-02-26T07:45:05;24.40;;;14.80;;
78856;SDS011;68207;50.078;19.936;2024-02-26T07:47:31;26.80;;;14.80;;
78856;SDS011;68207;50.078;19.936;2024-02-26T07:49:56;22.00;;;14.00;;
78856;SDS011;68207;50.078;19.936;2024-02-26T07:52:22;25.00;;;15.10;;
78856;SDS011;68207;50.078;19.936;2024-02-26T07:54:47;26.70;;;15.20;;
78856;SDS011;68207;50.078;19.936;2024-02-26T07:57:12;23.10;;;14.40;;
78856;SDS011;68207;50.078;19.936;2024-02-26T07:59:41;19.60;;;13.80;;
78856;SDS011;68207;50.078;19.936;2024-02-26T08:02:06;22.80;;;14.10;;
78856;SDS011;68207;50.078;19.936;2024-02-26T08:04:31;25.20;;;14.60;;
78856;SDS011;68207;50.078;19.936;2024-02-26T08:06:56;20.70;;;13.00;;
78856;SDS011;68207;50.078;19.936;2024-02-26T08:09:22;24.70;;;13.90;;
78856;SDS011;68207;50.078;19.936;2024-02-26T08:11:47;23.50;;;14.20;;
78856;SDS011;68207;50.078;19.936;2024-02-26T08:14:12;23.50;;;14.10;;
78856;SDS011;68207;50.078;19.936;2024-02-26T08:16:37;24.90;;;14.00;;
78856;SDS011;68207;50.078;19.936;2024-02-26T08:19:03;23.20;;;14.30;;
78856;SDS011;68207;50.078;19.936;2024-02-26T08:21:28;22.80;;;13.50;;
78856;SDS011;68207;50.078;19.936;2024-02-26T08:23:54;26.40;;;14.80;;
78856;SDS011;68207;50.078;19.936;2024-02-26T08:26:19;21.90;;;14.00;;
78856;SDS011;68207;50.078;19.936;2024-02-26T08:28:45;23.00;;;14.20;;
78856;SDS011;68207;50.078;19.936;2024-02-26T08:31:12;24.30;;;13.00;;
78856;SDS011;68207;50.078;19.936;2024-02-26T08:33:38;23.40;;;13.40;;
78856;SDS011;68207;50.078;19.936;2024-02-26T08:36:04;33.30;;;14.50;;
78856;SDS011;68207;50.078;19.936;2024-02-26T08:38:29;25.10;;;13.20;;
78856;SDS011;68207;50.078;19.936;2024-02-26T08:40:54;25.90;;;13.80;;
78856;SDS011;68207;50.078;19.936;2024-02-26T08:43:19;23.90;;;13.70;;
78856;SDS011;68207;50.078;19.936;2024-02-26T08:45:44;23.90;;;13.00;;
78856;SDS011;68207;50.078;19.936;2024-02-26T08:48:10;23.50;;;12.90;;
78856;SDS011;68207;50.078;19.936;2024-02-26T08:50:35;21.50;;;13.50;;
78856;SDS011;68207;50.078;19.936;2024-02-26T08:53:00;21.00;;;12.60;;
78856;SDS011;68207;50.078;19.936;2024-02-26T08:55:26;23.50;;;11.60;;
78856;SDS011;68207;50.078;19.936;2024-02-26T08:57:51;20.90;;;12.50;;
78856;SDS011;68207;50.078;19.936;2024-02-26T09:00:16;22.30;;;12.70;;
78856;SDS011;68207;50.078;19.936;2024-02-26T09:02:42;20.30;;;12.40;;
78856;SDS011;68207;50.078;19.936;2024-02-26T09:05:09;21.90;;;11.60;;
78856;SDS011;68207;50.078;19.936;2024-02-26T09:07:34;24.30;;;12.60;;
78856;SDS011;68207;50.078;19.936;2024-02-26T09:09:59;24.90;;;11.60;;
78856;SDS011;68207;50.078;19.936;2024-02-26T09:12:24;20.50;;;10.80;;
78856;SDS011;68207;50.078;19.936;2024-02-26T09:14:49;18.70;;;9.40;;
78856;SDS011;68207;50.078;19.936;2024-02-26T09:17:14;15.70;;;8.90;;
78856;SDS011;68207;50.078;19.936;2024-02-26T09:19:40;15.80;;;9.20;;
78856;SDS011;68207;50.078;19.936;2024-02-26T09:22:07;14.50;;;7.90;;
78856;SDS011;68207;50.078;19.936;2024-02-26T09:24:32;13.50;;;8.10;;
78856;SDS011;68207;50.078;19.936;2024-02-26T09:26:57;12.60;;;6.60;;
78856;SDS011;68207;50.078;19.936;2024-02-26T09:29:22;8.40;;;5.20;;
78856;SDS011;68207;50.078;19.936;2024-02-26T09:31:47;8.20;;;4.60;;
78856;SDS011;68207;50.078;19.936;2024-02-26T09:34:13;9.90;;;5.30;;
78856;SDS011;68207;50.078;19.936;2024-02-26T09:36:38;14.50;;;5.90;;
78856;SDS011;68207;50.078;19.936;2024-02-26T09:39:03;8.70;;;5.30;;
78856;SDS011;68207;50.078;19.936;2024-02-26T09:41:28;10.20;;;5.70;;
78856;SDS011;68207;50.078;19.936;2024-02-26T09:43:55;8.40;;;5.50;;
78856;SDS011;68207;50.078;19.936;2024-02-26T09:46:21;9.80;;;5.10;;
78856;SDS011;68207;50.078;19.936;2024-02-26T09:48:46;9.00;;;5.50;;
78856;SDS011;68207;50.078;19.936;2024-02-26T09:51:12;7.20;;;4.60;;
78856;SDS011;68207;50.078;19.936;2024-02-26T09:53:38;7.50;;;4.90;;
78856;SDS011;68207;50.078;19.936;2024-02-26T09:56:07;7.60;;;5.20;;
78856;SDS011;68207;50.078;19.936;2024-02-26T09:58:32;8.20;;;5.60;;
78856;SDS011;68207;50.078;19.936;2024-02-26T10:00:58;11.10;;;7.60;;
78856;SDS011;68207;50.078;19.936;2024-02-26T10:03:48;10.80;;;7.80;;
78856;SDS011;68207;50.078;19.936;2024-02-26T10:06:10;10.30;;;7.10;;
78856;SDS011;68207;50.078;19.936;2024-02-26T10:08:36;10.90;;;6.90;;
78856;SDS011;68207;50.078;19.936;2024-02-26T10:11:02;12.20;;;6.30;;
78856;SDS011;68207;50.078;19.936;2024-02-26T10:13:27;12.40;;;5.90;;
78856;SDS011;68207;50.078;19.936;2024-02-26T10:15:52;10.40;;;6.20;;
78856;SDS011;68207;50.078;19.936;2024-02-26T10:18:17;10.30;;;5.90;;
78856;SDS011;68207;50.078;19.936;2024-02-26T10:20:43;11.20;;;6.40;;
78856;SDS011;68207;50.078;19.936;2024-02-26T10:23:23;9.90;;;6.30;;
78856;SDS011;68207;50.078;19.936;2024-02-26T10:25:56;8.90;;;5.50;;
78856;SDS011;68207;50.078;19.936;2024-02-26T10:28:22;10.30;;;5.60;;
78856;SDS011;68207;50.078;19.936;2024-02-26T10:30:47;6.00;;;4.50;;
78856;SDS011;68207;50.078;19.936;2024-02-26T10:33:12;6.40;;;3.90;;
78856;SDS011;68207;50.078;19.936;2024-02-26T10:35:39;7.90;;;4.00;;
78856;SDS011;68207;50.078;19.936;2024-02-26T10:38:06;6.10;;;3.00;;
78856;SDS011;68207;50.078;19.936;2024-02-26T10:40:31;7.30;;;3.30;;
78856;SDS011;68207;50.078;19.936;2024-02-26T10:42:57;5.60;;;3.30;;
78856;SDS011;68207;50.078;19.936;2024-02-26T10:45:23;7.20;;;3.90;;
78856;SDS011;68207;50.078;19.936;2024-02-26T10:47:48;4.50;;;3.40;;
78856;SDS011;68207;50.078;19.936;2024-02-26T10:50:13;6.40;;;3.60;;
78856;SDS011;68207;50.078;19.936;2024-02-26T10:52:39;6.00;;;3.40;;
78856;SDS011;68207;50.078;19.936;2024-02-26T10:55:06;5.70;;;2.80;;
78856;SDS011;68207;50.078;19.936;2024-02-26T10:57:40;5.30;;;2.70;;
78856;SDS011;68207;50.078;19.936;2024-02-26T11:00:05;7.30;;;2.60;;
78856;SDS011;68207;50.078;19.936;2024-02-26T11:02:34;8.30;;;2.90;;
78856;SDS011;68207;50.078;19.936;2024-02-26T11:05:03;8.90;;;3.10;;
78856;SDS011;68207;50.078;19.936;2024-02-26T11:07:29;4.90;;;2.50;;
78856;SDS011;68207;50.078;19.936;2024-02-26T11:09:55;4.20;;;2.30;;
78856;SDS011;68207;50.078;19.936;2024-02-26T11:12:21;4.10;;;2.40;;
78856;SDS011;68207;50.078;19.936;2024-02-26T11:14:47;4.60;;;2.10;;
78856;SDS011;68207;50.078;19.936;2024-02-26T11:17:13;4.00;;;2.20;;
78856;SDS011;68207;50.078;19.936;2024-02-26T11:19:40;3.60;;;2.30;;
78856;SDS011;68207;50.078;19.936;2024-02-26T11:22:06;3.20;;;2.20;;
78856;SDS011;68207;50.078;19.936;2024-02-26T11:26:57;6.20;;;2.50;;
78856;SDS011;68207;50.078;19.936;2024-02-26T11:29:27;3.10;;;2.30;;
78856;SDS011;68207;50.078;19.936;2024-02-26T11:31:53;5.60;;;2.40;;
78856;SDS011;68207;50.078;19.936;2024-02-26T11:34:18;4.50;;;2.30;;
78856;SDS011;68207;50.078;19.936;2024-02-26T11:36:43;4.50;;;2.50;;
78856;SDS011;68207;50.078;19.936;2024-02-26T11:39:10;3.60;;;2.50;;
78856;SDS011;68207;50.078;19.936;2024-02-26T11:41:37;4.60;;;2.50;;
78856;SDS011;68207;50.078;19.936;2024-02-26T11:44:03;3.10;;;2.30;;
78856;SDS011;68207;50.078;19.936;2024-02-26T11:46:32;4.00;;;2.50;;
78856;SDS011;68207;50.078;19.936;2024-02-26T11:48:58;3.40;;;2.10;;
78856;SDS011;68207;50.078;19.936;2024-02-26T11:51:25;3.20;;;2.60;;
78856;SDS011;68207;50.078;19.936;2024-02-26T11:58:53;6.70;;;2.50;;
78856;SDS011;68207;50.078;19.936;2024-02-26T12:01:37;3.60;;;2.20;;
78856;SDS011;68207;50.078;19.936;2024-02-26T12:04:07;3.70;;;2.10;;
78856;SDS011;68207;50.078;19.936;2024-02-26T12:06:40;6.00;;;1.90;;
78856;SDS011;68207;50.078;19.936;2024-02-26T12:09:06;4.10;;;2.20;;
78856;SDS011;68207;50.078;19.936;2024-02-26T12:11:31;3.80;;;2.30;;
78856;SDS011;68207;50.078;19.936;2024-02-26T12:13:57;3.10;;;2.10;;
78856;SDS011;68207;50.078;19.936;2024-02-26T12:16:35;4.90;;;2.50;;
78856;SDS011;68207;50.078;19.936;2024-02-26T12:19:01;3.90;;;2.20;;
78856;SDS011;68207;50.078;19.936;2024-02-26T12:21:26;3.00;;;2.10;;
78856;SDS011;68207;50.078;19.936;2024-02-26T12:23:51;3.80;;;2.10;;
78856;SDS011;68207;50.078;19.936;2024-02-26T12:26:18;6.80;;;2.40;;
78856;SDS011;68207;50.078;19.936;2024-02-26T12:28:43;3.20;;;2.20;;
78856;SDS011;68207;50.078;19.936;2024-02-26T12:31:11;3.50;;;2.30;;
78856;SDS011;68207;50.078;19.936;2024-02-26T12:33:36;3.90;;;2.40;;
78856;SDS011;68207;50.078;19.936;2024-02-26T12:36:01;4.50;;;2.60;;
78856;SDS011;68207;50.078;19.936;2024-02-26T12:38:27;3.60;;;2.40;;
78856;SDS011;68207;50.078;19.936;2024-02-26T12:40:52;4.50;;;2.40;;
78856;SDS011;68207;50.078;19.936;2024-02-26T12:43:17;7.00;;;2.30;;
78856;SDS011;68207;50.078;19.936;2024-02-26T12:45:43;7.30;;;2.50;;
78856;SDS011;68207;50.078;19.936;2024-02-26T12:48:12;3.40;;;2.10;;
78856;SDS011;68207;50.078;19.936;2024-02-26T12:50:37;3.50;;;2.30;;
78856;SDS011;68207;50.078;19.936;2024-02-26T12:53:02;3.00;;;2.20;;
78856;SDS011;68207;50.078;19.936;2024-02-26T12:55:28;3.50;;;2.30;;
78856;SDS011;68207;50.078;19.936;2024-02-26T12:57:53;3.70;;;2.50;;
78856;SDS011;68207;50.078;19.936;2024-02-26T13:00:20;7.00;;;2.50;;
78856;SDS011;68207;50.078;19.936;2024-02-26T13:02:47;3.90;;;2.30;;
78856;SDS011;68207;50.078;19.936;2024-02-26T13:05:13;3.50;;;2.50;;
78856;SDS011;68207;50.078;19.936;2024-02-26T13:07:42;3.20;;;2.40;;
78856;SDS011;68207;50.078;19.936;2024-02-26T13:10:07;2.80;;;2.20;;
78856;SDS011;68207;50.078;19.936;2024-02-26T13:12:33;3.20;;;2.30;;
78856;SDS011;68207;50.078;19.936;2024-02-26T13:14:59;5.00;;;2.90;;
78856;SDS011;68207;50.078;19.936;2024-02-26T13:17:24;4.40;;;2.40;;
78856;SDS011;68207;50.078;19.936;2024-02-26T13:19:52;5.20;;;2.80;;
78856;SDS011;68207;50.078;19.936;2024-02-26T13:22:20;3.30;;;2.50;;
78856;SDS011;68207;50.078;19.936;2024-02-26T13:24:45;4.30;;;2.50;;
78856;SDS011;68207;50.078;19.936;2024-02-26T13:27:21;3.50;;;2.50;;
78856;SDS011;68207;50.078;19.936;2024-02-26T13:29:46;3.90;;;2.90;;
78856;SDS011;68207;50.078;19.936;2024-02-26T13:32:12;4.40;;;2.80;;
78856;SDS011;68207;50.078;19.936;2024-02-26T13:34:37;3.80;;;2.80;;
78856;SDS011;68207;50.078;19.936;2024-02-26T13:37:03;4.90;;;2.80;;
78856;SDS011;68207;50.078;19.936;2024-02-26T13:39:28;4.40;;;2.90;;
78856;SDS011;68207;50.078;19.936;2024-02-26T13:41:53;5.20;;;3.00;;
78856;SDS011;68207;50.078;19.936;2024-02-26T13:44:19;5.30;;;3.50;;
78856;SDS011;68207;50.078;19.936;2024-02-26T13:46:45;5.40;;;3.60;;
78856;SDS011;68207;50.078;19.936;2024-02-26T13:49:10;6.90;;;3.70;;
78856;SDS011;68207;50.078;19.936;2024-02-26T13:51:36;6.20;;;3.70;;
78856;SDS011;68207;50.078;19.936;2024-02-26T13:54:02;4.30;;;3.50;;
78856;SDS011;68207;50.078;19.936;2024-02-26T13:56:27;4.80;;;3.70;;
78856;SDS011;68207;50.078;19.936;2024-02-26T13:58:52;6.30;;;3.60;;
78856;SDS011;68207;50.078;19.936;2024-02-26T14:01:17;7.80;;;3.90;;
78856;SDS011;68207;50.078;19.936;2024-02-26T14:03:42;6.50;;;4.20;;
78856;SDS011;68207;50.078;19.936;2024-02-26T14:06:07;9.00;;;3.70;;
78856;SDS011;68207;50.078;19.936;2024-02-26T14:08:33;4.90;;;3.90;;
78856;SDS011;68207;50.078;19.936;2024-02-26T14:10:58;7.60;;;3.80;;
78856;SDS011;68207;50.078;19.936;2024-02-26T14:13:25;6.30;;;4.30;;
78856;SDS011;68207;50.078;19.936;2024-02-26T14:15:50;7.00;;;4.20;;
78856;SDS011;68207;50.078;19.936;2024-02-26T14:18:15;6.10;;;4.60;;
78856;SDS011;68207;50.078;19.936;2024-02-26T14:20:40;5.40;;;4.40;;
78856;SDS011;68207;50.078;19.936;2024-02-26T14:23:05;5.50;;;4.50;;